ELY5137 LLBG-LCPH
Flight info
| Callsign | ELY5137 |
|---|---|
| Flight time | 0h 50m |
| Altitude | 32000 |
| Route | DAFNA W13 VELOX M42 ESERI |
| Aircraft | B738/M-SDE2E3FGHIRWXY/LB1 |
Departure
| Time | 2026-05-07 12:40 |
|---|---|
| Airport | Ben Gurion International Airport (LLBG) |
Arrival
| Time | 2026-05-07 13:30 |
|---|---|
| Airport | Paphos International Airport (LCPH) |
| Time | Latitude | Longitude | Altitude | Speed | Heading |
|---|---|---|---|---|---|
| 2026-05-07 12:10 | 32.00298 | 34.87505 | 119 ft | 0 kts | 342° |
| 2026-05-07 12:11 | 32.00298 | 34.87506 | 119 ft | 0 kts | 342° |
| 2026-05-07 12:11 | 32.00298 | 34.87505 | 119 ft | 0 kts | 342° |
| 2026-05-07 12:11 | 32.00298 | 34.87506 | 119 ft | 0 kts | 342° |
| 2026-05-07 12:27 | 32.00282 | 34.87511 | 116 ft | 3 kts | 343° |
| 2026-05-07 12:27 | 32.00262 | 34.87519 | 114 ft | 3 kts | 339° |
| 2026-05-07 12:27 | 32.00244 | 34.87529 | 117 ft | 3 kts | 321° |
| 2026-05-07 12:28 | 32.00232 | 34.87544 | 114 ft | 3 kts | 308° |
| 2026-05-07 12:28 | 32.00220 | 34.87564 | 115 ft | 3 kts | 297° |
| 2026-05-07 12:28 | 32.00210 | 34.87584 | 115 ft | 3 kts | 319° |
| 2026-05-07 12:28 | 32.00195 | 34.87597 | 118 ft | 3 kts | 329° |
| 2026-05-07 12:29 | 32.00176 | 34.87608 | 116 ft | 3 kts | 348° |
| 2026-05-07 12:29 | 32.00157 | 34.87608 | 116 ft | 3 kts | 24° |
| 2026-05-07 12:29 | 32.00141 | 34.87598 | 116 ft | 3 kts | 31° |
| 2026-05-07 12:29 | 32.00123 | 34.87585 | 116 ft | 3 kts | 32° |
| 2026-05-07 12:30 | 32.00106 | 34.87572 | 117 ft | 2 kts | 31° |
| 2026-05-07 12:30 | 32.00105 | 34.87572 | 117 ft | 2 kts | 31° |
| 2026-05-07 12:32 | 32.00106 | 34.87572 | 117 ft | 1 kts | 31° |
| 2026-05-07 12:32 | 32.00126 | 34.87587 | 116 ft | 7 kts | 31° |
| 2026-05-07 12:32 | 32.00183 | 34.87628 | 117 ft | 12 kts | 31° |
| 2026-05-07 12:32 | 32.00271 | 34.87692 | 118 ft | 17 kts | 31° |
| 2026-05-07 12:33 | 32.00525 | 34.87874 | 117 ft | 24 kts | 32° |
| 2026-05-07 12:33 | 32.00637 | 34.87955 | 119 ft | 9 kts | 32° |
| 2026-05-07 12:33 | 32.00642 | 34.87959 | 117 ft | 0 kts | 32° |
| 2026-05-07 12:36 | 32.00670 | 34.87980 | 117 ft | 8 kts | 32° |
| 2026-05-07 12:37 | 32.00738 | 34.88029 | 119 ft | 15 kts | 32° |
| 2026-05-07 12:37 | 32.00853 | 34.88111 | 118 ft | 24 kts | 31° |
| 2026-05-07 12:37 | 32.01015 | 34.88228 | 117 ft | 31 kts | 31° |
| 2026-05-07 12:37 | 32.01212 | 34.88368 | 118 ft | 33 kts | 33° |
| 2026-05-07 12:38 | 32.01378 | 34.88544 | 117 ft | 31 kts | 54° |
| 2026-05-07 12:38 | 32.01477 | 34.88757 | 115 ft | 29 kts | 72° |
| 2026-05-07 12:38 | 32.01518 | 34.88982 | 115 ft | 27 kts | 80° |
| 2026-05-07 12:38 | 32.01576 | 34.89153 | 117 ft | 21 kts | 21° |
| 2026-05-07 12:39 | 32.01719 | 34.89137 | 116 ft | 19 kts | 345° |
| 2026-05-07 12:39 | 32.01754 | 34.89077 | 118 ft | 7 kts | 262° |
| 2026-05-07 12:39 | 32.01717 | 34.88898 | 119 ft | 55 kts | 260° |
| 2026-05-07 12:39 | 32.01602 | 34.88150 | 117 ft | 126 kts | 259° |
| 2026-05-07 12:40 | 32.01419 | 34.86914 | 203 ft | 175 kts | 266° |
| 2026-05-07 12:40 | 32.01234 | 34.85427 | 824 ft | 187 kts | 264° |
| 2026-05-07 12:40 | 32.00920 | 34.83962 | 1841 ft | 179 kts | 260° |
| 2026-05-07 12:40 | 32.00593 | 34.82478 | 2418 ft | 201 kts | 261° |
| 2026-05-07 12:41 | 32.00234 | 34.80769 | 2676 ft | 227 kts | 262° |
| 2026-05-07 12:41 | 31.99845 | 34.78895 | 3097 ft | 241 kts | 258° |
| 2026-05-07 12:41 | 31.99427 | 34.76903 | 3468 ft | 262 kts | 258° |
| 2026-05-07 12:41 | 31.99252 | 34.74768 | 4149 ft | 265 kts | 280° |
| 2026-05-07 12:42 | 31.99779 | 34.72684 | 4921 ft | 268 kts | 290° |
| 2026-05-07 12:42 | 32.00442 | 34.70619 | 5648 ft | 271 kts | 290° |
| 2026-05-07 12:42 | 32.01108 | 34.68537 | 6427 ft | 272 kts | 290° |
| 2026-05-07 12:42 | 32.01771 | 34.66436 | 7139 ft | 274 kts | 289° |
| 2026-05-07 12:43 | 32.02432 | 34.64321 | 7751 ft | 276 kts | 289° |
| 2026-05-07 12:43 | 32.02819 | 34.62112 | 8032 ft | 275 kts | 274° |
| 2026-05-07 12:43 | 32.02925 | 34.59830 | 8047 ft | 282 kts | 272° |
| 2026-05-07 12:43 | 32.03010 | 34.57514 | 8057 ft | 282 kts | 272° |
| 2026-05-07 12:44 | 32.03112 | 34.55219 | 8054 ft | 279 kts | 273° |
| 2026-05-07 12:44 | 32.03224 | 34.52942 | 8058 ft | 278 kts | 273° |
| 2026-05-07 12:44 | 32.03341 | 34.50662 | 8153 ft | 282 kts | 273° |
| 2026-05-07 12:44 | 32.03686 | 34.48379 | 8820 ft | 282 kts | 293° |
| 2026-05-07 12:45 | 32.04772 | 34.46503 | 9748 ft | 280 kts | 316° |
| 2026-05-07 12:45 | 32.06453 | 34.45316 | 10296 ft | 290 kts | 340° |
| 2026-05-07 12:45 | 32.08528 | 34.45043 | 10474 ft | 314 kts | 2° |
| 2026-05-07 12:45 | 32.10778 | 34.45310 | 10646 ft | 335 kts | 5° |
| 2026-05-07 12:46 | 32.13155 | 34.45662 | 10860 ft | 352 kts | 5° |
| 2026-05-07 12:46 | 32.15613 | 34.46030 | 11362 ft | 359 kts | 5° |
| 2026-05-07 12:46 | 32.17855 | 34.46352 | 11922 ft | 361 kts | 5° |
| 2026-05-07 12:46 | 32.20357 | 34.46693 | 12563 ft | 363 kts | 4° |
| 2026-05-07 12:47 | 32.22883 | 34.47029 | 13170 ft | 367 kts | 4° |
| 2026-05-07 12:47 | 32.25435 | 34.47365 | 13796 ft | 371 kts | 4° |
| 2026-05-07 12:47 | 32.28009 | 34.47706 | 14402 ft | 373 kts | 4° |
| 2026-05-07 12:47 | 32.30592 | 34.47906 | 15053 ft | 371 kts | 352° |
| 2026-05-07 12:48 | 32.33059 | 34.47148 | 15754 ft | 366 kts | 333° |
| 2026-05-07 12:48 | 32.35183 | 34.45512 | 16336 ft | 367 kts | 317° |
| 2026-05-07 12:48 | 32.37027 | 34.43414 | 16937 ft | 369 kts | 314° |
| 2026-05-07 12:48 | 32.38837 | 34.41249 | 17567 ft | 371 kts | 314° |
| 2026-05-07 12:49 | 32.40657 | 34.39060 | 18110 ft | 375 kts | 314° |
| 2026-05-07 12:49 | 32.42501 | 34.36860 | 18672 ft | 377 kts | 314° |
| 2026-05-07 12:49 | 32.44362 | 34.34659 | 19216 ft | 379 kts | 314° |
| 2026-05-07 12:49 | 32.46239 | 34.32453 | 19748 ft | 381 kts | 314° |
| 2026-05-07 12:50 | 32.48129 | 34.30238 | 20297 ft | 383 kts | 314° |
| 2026-05-07 12:50 | 32.50028 | 34.28013 | 20826 ft | 385 kts | 314° |
| 2026-05-07 12:50 | 32.51935 | 34.25779 | 21354 ft | 387 kts | 315° |
| 2026-05-07 12:50 | 32.54081 | 34.23840 | 21817 ft | 392 kts | 330° |
| 2026-05-07 12:51 | 32.56639 | 34.22692 | 22305 ft | 398 kts | 346° |
| 2026-05-07 12:51 | 32.59401 | 34.22245 | 22811 ft | 402 kts | 351° |
| 2026-05-07 12:51 | 32.62194 | 34.21934 | 23277 ft | 405 kts | 352° |
| 2026-05-07 12:51 | 32.65014 | 34.21656 | 23705 ft | 408 kts | 352° |
| 2026-05-07 12:52 | 32.67851 | 34.21378 | 24067 ft | 411 kts | 352° |
| 2026-05-07 12:52 | 32.70705 | 34.21087 | 24445 ft | 413 kts | 351° |
| 2026-05-07 12:52 | 32.73578 | 34.20782 | 24815 ft | 415 kts | 351° |
| 2026-05-07 12:52 | 32.76457 | 34.20465 | 25186 ft | 417 kts | 351° |
| 2026-05-07 12:53 | 32.79361 | 34.20139 | 25542 ft | 420 kts | 351° |
| 2026-05-07 12:53 | 32.82277 | 34.19807 | 25881 ft | 422 kts | 351° |
| 2026-05-07 12:53 | 32.85209 | 34.19472 | 26225 ft | 425 kts | 350° |
| 2026-05-07 12:53 | 32.88156 | 34.19134 | 26571 ft | 427 kts | 350° |
| 2026-05-07 12:54 | 32.91118 | 34.18793 | 26901 ft | 429 kts | 350° |
| 2026-05-07 12:54 | 32.94102 | 34.18450 | 27229 ft | 431 kts | 350° |
| 2026-05-07 12:54 | 32.97097 | 34.18106 | 27551 ft | 434 kts | 350° |
| 2026-05-07 12:54 | 33.00100 | 34.17762 | 27954 ft | 433 kts | 350° |
| 2026-05-07 12:55 | 33.03096 | 34.17419 | 28454 ft | 431 kts | 350° |
| 2026-05-07 12:55 | 33.06076 | 34.17078 | 28942 ft | 429 kts | 349° |
| 2026-05-07 12:55 | 33.09046 | 34.16737 | 29365 ft | 429 kts | 349° |
| 2026-05-07 12:55 | 33.12020 | 34.16394 | 29772 ft | 429 kts | 349° |
| 2026-05-07 12:56 | 33.14984 | 34.16053 | 30199 ft | 428 kts | 349° |
| 2026-05-07 12:56 | 33.17946 | 34.15711 | 30596 ft | 426 kts | 349° |
| 2026-05-07 12:56 | 33.20887 | 34.15373 | 30995 ft | 424 kts | 349° |
| 2026-05-07 12:56 | 33.23823 | 34.15034 | 31376 ft | 423 kts | 349° |
| 2026-05-07 12:57 | 33.26746 | 34.14696 | 31745 ft | 421 kts | 349° |
| 2026-05-07 12:57 | 33.29663 | 34.14359 | 32082 ft | 421 kts | 349° |
| 2026-05-07 12:57 | 33.35546 | 34.13674 | 32098 ft | 426 kts | 349° |
| 2026-05-07 12:58 | 33.41407 | 34.12998 | 32091 ft | 419 kts | 349° |
| 2026-05-07 12:58 | 33.47208 | 34.12325 | 32112 ft | 419 kts | 349° |
| 2026-05-07 12:59 | 33.53024 | 34.11647 | 32109 ft | 420 kts | 349° |
| 2026-05-07 12:59 | 33.58853 | 34.10968 | 32106 ft | 421 kts | 349° |
| 2026-05-07 13:00 | 33.64678 | 34.10291 | 32085 ft | 414 kts | 349° |
| 2026-05-07 13:00 | 33.67505 | 34.09965 | 32083 ft | 402 kts | 349° |
| 2026-05-07 13:00 | 33.70274 | 34.09642 | 32046 ft | 398 kts | 349° |
| 2026-05-07 13:01 | 33.73061 | 34.09312 | 31431 ft | 402 kts | 349° |
| 2026-05-07 13:01 | 33.75812 | 34.08992 | 31211 ft | 393 kts | 349° |
| 2026-05-07 13:01 | 33.78459 | 34.08441 | 30925 ft | 378 kts | 335° |
| 2026-05-07 13:01 | 33.80726 | 34.06993 | 30699 ft | 366 kts | 319° |
| 2026-05-07 13:02 | 33.82587 | 34.04918 | 30473 ft | 366 kts | 307° |
| 2026-05-07 13:02 | 33.83959 | 34.02345 | 30245 ft | 367 kts | 295° |
| 2026-05-07 13:02 | 33.84693 | 34.00470 | 30083 ft | 366 kts | 293° |
| 2026-05-07 13:02 | 33.85707 | 33.97664 | 29792 ft | 364 kts | 292° |
| 2026-05-07 13:03 | 33.86685 | 33.94863 | 29524 ft | 363 kts | 292° |
| 2026-05-07 13:03 | 33.87658 | 33.92066 | 29242 ft | 361 kts | 292° |
| 2026-05-07 13:03 | 33.88632 | 33.89290 | 28972 ft | 360 kts | 292° |
| 2026-05-07 13:03 | 33.89612 | 33.86523 | 28702 ft | 359 kts | 293° |
| 2026-05-07 13:04 | 33.90593 | 33.83769 | 28432 ft | 357 kts | 293° |
| 2026-05-07 13:04 | 33.91573 | 33.81030 | 28142 ft | 354 kts | 293° |
| 2026-05-07 13:04 | 33.92544 | 33.78324 | 27799 ft | 350 kts | 293° |
| 2026-05-07 13:04 | 33.93505 | 33.75648 | 27411 ft | 347 kts | 293° |
| 2026-05-07 13:05 | 33.94457 | 33.72995 | 27031 ft | 344 kts | 293° |
| 2026-05-07 13:05 | 33.95402 | 33.70364 | 26655 ft | 341 kts | 294° |
| 2026-05-07 13:05 | 33.96338 | 33.67755 | 26284 ft | 338 kts | 294° |
| 2026-05-07 13:05 | 33.97267 | 33.65165 | 25923 ft | 336 kts | 294° |
| 2026-05-07 13:06 | 33.98189 | 33.62591 | 25557 ft | 333 kts | 294° |
| 2026-05-07 13:06 | 33.99104 | 33.60035 | 25187 ft | 331 kts | 294° |
| 2026-05-07 13:06 | 34.00014 | 33.57492 | 24825 ft | 329 kts | 294° |
| 2026-05-07 13:06 | 34.00917 | 33.54965 | 24470 ft | 328 kts | 294° |
| 2026-05-07 13:07 | 34.01815 | 33.52451 | 24105 ft | 326 kts | 294° |
| 2026-05-07 13:07 | 34.02709 | 33.49945 | 23746 ft | 325 kts | 294° |
| 2026-05-07 13:07 | 34.03600 | 33.47448 | 23337 ft | 323 kts | 294° |
| 2026-05-07 13:07 | 34.04484 | 33.44966 | 22944 ft | 321 kts | 294° |
| 2026-05-07 13:08 | 34.05363 | 33.42499 | 22572 ft | 319 kts | 294° |
| 2026-05-07 13:08 | 34.06234 | 33.40049 | 22216 ft | 317 kts | 294° |
| 2026-05-07 13:08 | 34.07099 | 33.37617 | 21865 ft | 314 kts | 294° |
| 2026-05-07 13:08 | 34.07956 | 33.35204 | 21519 ft | 312 kts | 294° |
| 2026-05-07 13:09 | 34.08807 | 33.32806 | 21171 ft | 310 kts | 294° |
| 2026-05-07 13:09 | 34.09652 | 33.30424 | 20830 ft | 308 kts | 294° |
| 2026-05-07 13:09 | 34.10492 | 33.28054 | 20494 ft | 306 kts | 294° |
| 2026-05-07 13:09 | 34.11326 | 33.25701 | 20160 ft | 305 kts | 294° |
| 2026-05-07 13:10 | 34.12156 | 33.23354 | 19827 ft | 303 kts | 294° |
| 2026-05-07 13:10 | 34.12983 | 33.21016 | 19497 ft | 302 kts | 294° |
| 2026-05-07 13:10 | 34.13806 | 33.18689 | 19166 ft | 301 kts | 294° |
| 2026-05-07 13:10 | 34.14626 | 33.16366 | 18836 ft | 300 kts | 294° |
| 2026-05-07 13:11 | 34.15443 | 33.14052 | 18505 ft | 300 kts | 294° |
| 2026-05-07 13:11 | 34.16259 | 33.11737 | 18136 ft | 299 kts | 294° |
| 2026-05-07 13:11 | 34.17083 | 33.09398 | 17770 ft | 298 kts | 294° |
| 2026-05-07 13:11 | 34.17881 | 33.07134 | 17433 ft | 296 kts | 294° |
| 2026-05-07 13:12 | 34.18685 | 33.04847 | 17099 ft | 295 kts | 294° |
| 2026-05-07 13:12 | 34.19485 | 33.02573 | 16775 ft | 293 kts | 294° |
| 2026-05-07 13:12 | 34.20280 | 33.00310 | 16448 ft | 292 kts | 294° |
| 2026-05-07 13:12 | 34.21071 | 32.98058 | 16130 ft | 291 kts | 294° |
| 2026-05-07 13:13 | 34.21857 | 32.95817 | 15798 ft | 289 kts | 294° |
| 2026-05-07 13:13 | 34.22651 | 32.93554 | 15493 ft | 288 kts | 294° |
| 2026-05-07 13:13 | 34.23420 | 32.91357 | 15182 ft | 287 kts | 294° |
| 2026-05-07 13:13 | 34.24198 | 32.89137 | 14870 ft | 286 kts | 294° |
| 2026-05-07 13:14 | 34.24972 | 32.86923 | 14542 ft | 286 kts | 294° |
| 2026-05-07 13:14 | 34.25753 | 32.84690 | 14062 ft | 291 kts | 294° |
| 2026-05-07 13:14 | 34.26549 | 32.82415 | 13578 ft | 296 kts | 294° |
| 2026-05-07 13:14 | 34.27356 | 32.80105 | 13069 ft | 300 kts | 294° |
| 2026-05-07 13:15 | 34.28170 | 32.77772 | 12562 ft | 302 kts | 294° |
| 2026-05-07 13:15 | 34.28999 | 32.75392 | 12052 ft | 303 kts | 294° |
| 2026-05-07 13:15 | 34.29805 | 32.73091 | 11556 ft | 300 kts | 296° |
| 2026-05-07 13:15 | 34.30790 | 32.70889 | 11082 ft | 296 kts | 303° |
| 2026-05-07 13:16 | 34.31904 | 32.68810 | 10591 ft | 293 kts | 305° |
| 2026-05-07 13:16 | 34.33037 | 32.66765 | 10124 ft | 292 kts | 305° |
| 2026-05-07 13:16 | 34.34161 | 32.64732 | 9607 ft | 290 kts | 305° |
| 2026-05-07 13:16 | 34.35286 | 32.62677 | 9079 ft | 288 kts | 305° |
| 2026-05-07 13:17 | 34.36369 | 32.60679 | 8586 ft | 287 kts | 305° |
| 2026-05-07 13:17 | 34.37456 | 32.58661 | 8079 ft | 286 kts | 305° |
| 2026-05-07 13:17 | 34.38535 | 32.56650 | 7593 ft | 285 kts | 305° |
| 2026-05-07 13:17 | 34.39624 | 32.54614 | 7095 ft | 285 kts | 305° |
| 2026-05-07 13:18 | 34.40690 | 32.52619 | 6754 ft | 283 kts | 305° |
| 2026-05-07 13:18 | 34.41753 | 32.50622 | 6502 ft | 274 kts | 305° |
| 2026-05-07 13:18 | 34.42759 | 32.48734 | 6246 ft | 267 kts | 305° |
| 2026-05-07 13:18 | 34.43765 | 32.46844 | 5971 ft | 261 kts | 304° |
| 2026-05-07 13:19 | 34.44735 | 32.45021 | 5808 ft | 252 kts | 305° |
| 2026-05-07 13:19 | 34.45670 | 32.43263 | 5814 ft | 246 kts | 305° |
| 2026-05-07 13:19 | 34.46609 | 32.41500 | 5828 ft | 254 kts | 304° |
| 2026-05-07 13:19 | 34.47574 | 32.39686 | 5837 ft | 258 kts | 304° |
| 2026-05-07 13:20 | 34.48593 | 32.37889 | 5825 ft | 258 kts | 315° |
| 2026-05-07 13:20 | 34.50051 | 32.36713 | 5817 ft | 252 kts | 342° |
| 2026-05-07 13:20 | 34.51765 | 32.36465 | 5822 ft | 249 kts | 7° |
| 2026-05-07 13:20 | 34.53392 | 32.37125 | 5822 ft | 249 kts | 31° |
| 2026-05-07 13:21 | 34.54680 | 32.38526 | 5817 ft | 252 kts | 53° |
| 2026-05-07 13:21 | 34.55469 | 32.40426 | 5836 ft | 254 kts | 66° |
| 2026-05-07 13:21 | 34.56181 | 32.42386 | 5820 ft | 254 kts | 53° |
| 2026-05-07 13:21 | 34.57519 | 32.43715 | 5764 ft | 250 kts | 28° |
| 2026-05-07 13:22 | 34.58747 | 32.45153 | 5548 ft | 246 kts | 64° |
| 2026-05-07 13:22 | 34.58947 | 32.47161 | 5358 ft | 245 kts | 103° |
| 2026-05-07 13:22 | 34.58047 | 32.48815 | 5244 ft | 236 kts | 143° |
| 2026-05-07 13:22 | 34.56714 | 32.49956 | 4839 ft | 234 kts | 127° |
| 2026-05-07 13:23 | 34.56158 | 32.51688 | 4588 ft | 217 kts | 84° |
| 2026-05-07 13:23 | 34.56687 | 32.53280 | 4406 ft | 202 kts | 39° |
| 2026-05-07 13:23 | 34.57835 | 32.54188 | 4276 ft | 199 kts | 38° |
| 2026-05-07 13:23 | 34.58594 | 32.55621 | 4141 ft | 205 kts | 64° |
| 2026-05-07 13:24 | 34.59220 | 32.57217 | 3996 ft | 213 kts | 60° |
| 2026-05-07 13:24 | 34.59907 | 32.58801 | 3936 ft | 212 kts | 59° |
| 2026-05-07 13:24 | 34.60599 | 32.60378 | 3833 ft | 210 kts | 59° |
| 2026-05-07 13:24 | 34.61264 | 32.61898 | 3754 ft | 196 kts | 59° |
| 2026-05-07 13:25 | 34.61880 | 32.63310 | 3612 ft | 183 kts | 59° |
| 2026-05-07 13:25 | 34.62467 | 32.64651 | 3425 ft | 177 kts | 58° |
| 2026-05-07 13:25 | 34.63050 | 32.65950 | 3240 ft | 173 kts | 52° |
| 2026-05-07 13:25 | 34.63987 | 32.66780 | 3044 ft | 167 kts | 8° |
| 2026-05-07 13:26 | 34.65108 | 32.66667 | 2914 ft | 160 kts | 344° |
| 2026-05-07 13:26 | 34.66012 | 32.65953 | 2862 ft | 156 kts | 308° |
| 2026-05-07 13:26 | 34.66619 | 32.64777 | 2601 ft | 170 kts | 299° |
| 2026-05-07 13:26 | 34.67143 | 32.63519 | 2391 ft | 164 kts | 296° |
| 2026-05-07 13:27 | 34.67630 | 32.62284 | 2137 ft | 160 kts | 292° |
| 2026-05-07 13:27 | 34.68020 | 32.61047 | 1928 ft | 156 kts | 292° |
| 2026-05-07 13:27 | 34.68384 | 32.59835 | 1697 ft | 153 kts | 291° |
| 2026-05-07 13:27 | 34.68758 | 32.58638 | 1507 ft | 157 kts | 289° |
| 2026-05-07 13:28 | 34.69098 | 32.57404 | 1356 ft | 155 kts | 291° |
| 2026-05-07 13:28 | 34.69492 | 32.56188 | 1126 ft | 151 kts | 291° |
| 2026-05-07 13:28 | 34.69828 | 32.55013 | 935 ft | 146 kts | 291° |
| 2026-05-07 13:28 | 34.70191 | 32.53881 | 768 ft | 141 kts | 291° |
| 2026-05-07 13:29 | 34.70299 | 32.53501 | 700 ft | 141 kts | 292° |
| 2026-05-07 13:29 | 34.70490 | 32.52860 | 589 ft | 139 kts | 292° |
| 2026-05-07 13:29 | 34.70814 | 32.51773 | 393 ft | 136 kts | 291° |
| 2026-05-07 13:29 | 34.71131 | 32.50702 | 205 ft | 132 kts | 293° |
| 2026-05-07 13:30 | 34.71454 | 32.49647 | 56 ft | 132 kts | 292° |
| 2026-05-07 13:30 | 34.71740 | 32.48740 | 44 ft | 87 kts | 289° |
| 2026-05-07 13:30 | 34.71883 | 32.48265 | 43 ft | 46 kts | 290° |
| 2026-05-07 13:30 | 34.71991 | 32.47921 | 44 ft | 42 kts | 291° |
| 2026-05-07 13:31 | 34.72096 | 32.47601 | 43 ft | 40 kts | 292° |
| 2026-05-07 13:31 | 34.72188 | 32.47300 | 44 ft | 32 kts | 290° |
| 2026-05-07 13:31 | 34.72288 | 32.47127 | 43 ft | 17 kts | 353° |
| 2026-05-07 13:31 | 34.72377 | 32.47173 | 43 ft | 8 kts | 48° |
| 2026-05-07 13:32 | 34.72381 | 32.47232 | 43 ft | 8 kts | 116° |
| 2026-05-07 13:32 | 34.72356 | 32.47304 | 41 ft | 14 kts | 111° |
| 2026-05-07 13:32 | 34.72311 | 32.47440 | 43 ft | 19 kts | 111° |
| 2026-05-07 13:32 | 34.72264 | 32.47595 | 43 ft | 21 kts | 110° |
| 2026-05-07 13:33 | 34.72205 | 32.47788 | 43 ft | 27 kts | 110° |
| 2026-05-07 13:33 | 34.72132 | 32.48029 | 40 ft | 33 kts | 110° |
| 2026-05-07 13:33 | 34.72045 | 32.48314 | 40 ft | 38 kts | 110° |
| 2026-05-07 13:33 | 34.71947 | 32.48480 | 42 ft | 18 kts | 183° |
| 2026-05-07 13:34 | 34.71829 | 32.48430 | 43 ft | 19 kts | 200° |
| 2026-05-07 13:34 | 34.71533 | 32.48297 | 41 ft | 23 kts | 200° |
| 2026-05-07 13:34 | 34.71407 | 32.48241 | 43 ft | 15 kts | 200° |
| 2026-05-07 13:35 | 34.71355 | 32.48186 | 43 ft | 9 kts | 236° |
| 2026-05-07 13:35 | 34.71347 | 32.48173 | 43 ft | 1 kts | 235° |
| 2026-05-07 13:35 | 34.71344 | 32.48168 | 43 ft | 1 kts | 235° |
| 2026-05-07 13:35 | 34.71342 | 32.48164 | 43 ft | 0 kts | 235° |